sensor_id;sensor_type;location;lat;lon;timestamp;temperature;humidity
16066;DHT22;8137;48.952;8.970;2023-05-07T00:02:21;12.10;99.90
16066;DHT22;8137;48.952;8.970;2023-05-07T00:04:48;12.10;99.90
16066;DHT22;8137;48.952;8.970;2023-05-07T00:07:14;12.10;99.90
16066;DHT22;8137;48.952;8.970;2023-05-07T00:09:40;12.10;99.90
16066;DHT22;8137;48.952;8.970;2023-05-07T00:12:06;12.10;99.90
16066;DHT22;8137;48.952;8.970;2023-05-07T00:14:31;12.20;99.90
16066;DHT22;8137;48.952;8.970;2023-05-07T00:16:57;12.20;99.90
16066;DHT22;8137;48.952;8.970;2023-05-07T00:19:23;12.20;99.90
16066;DHT22;8137;48.952;8.970;2023-05-07T00:21:48;12.20;99.90
16066;DHT22;8137;48.952;8.970;2023-05-07T00:24:14;12.20;99.90
16066;DHT22;8137;48.952;8.970;2023-05-07T00:26:39;12.20;99.90
16066;DHT22;8137;48.952;8.970;2023-05-07T00:29:05;12.20;99.90
16066;DHT22;8137;48.952;8.970;2023-05-07T00:31:31;12.20;99.90
16066;DHT22;8137;48.952;8.970;2023-05-07T00:33:56;12.10;99.90
16066;DHT22;8137;48.952;8.970;2023-05-07T00:36:22;12.10;99.90
16066;DHT22;8137;48.952;8.970;2023-05-07T00:38:47;12.10;99.90
16066;DHT22;8137;48.952;8.970;2023-05-07T00:41:13;12.00;99.90
16066;DHT22;8137;48.952;8.970;2023-05-07T00:43:39;12.00;99.90
16066;DHT22;8137;48.952;8.970;2023-05-07T00:46:04;11.90;99.90
16066;DHT22;8137;48.952;8.970;2023-05-07T00:48:30;11.90;99.90
16066;DHT22;8137;48.952;8.970;2023-05-07T00:50:57;11.90;99.90
16066;DHT22;8137;48.952;8.970;2023-05-07T00:53:22;11.90;99.90
16066;DHT22;8137;48.952;8.970;2023-05-07T00:55:48;11.80;99.90
16066;DHT22;8137;48.952;8.970;2023-05-07T00:58:14;11.80;99.90
16066;DHT22;8137;48.952;8.970;2023-05-07T01:00:40;11.80;99.90
16066;DHT22;8137;48.952;8.970;2023-05-07T01:03:06;11.80;99.90
16066;DHT22;8137;48.952;8.970;2023-05-07T01:05:31;11.80;99.90
16066;DHT22;8137;48.952;8.970;2023-05-07T01:07:58;11.80;99.90
16066;DHT22;8137;48.952;8.970;2023-05-07T01:10:24;11.80;99.90
16066;DHT22;8137;48.952;8.970;2023-05-07T01:12:50;11.80;99.90
16066;DHT22;8137;48.952;8.970;2023-05-07T01:15:16;11.80;99.90
16066;DHT22;8137;48.952;8.970;2023-05-07T01:17:43;11.80;99.90
16066;DHT22;8137;48.952;8.970;2023-05-07T01:20:09;11.80;99.90
16066;DHT22;8137;48.952;8.970;2023-05-07T01:22:38;11.70;99.90
16066;DHT22;8137;48.952;8.970;2023-05-07T01:25:06;11.80;99.90
16066;DHT22;8137;48.952;8.970;2023-05-07T01:27:32;11.70;99.90
16066;DHT22;8137;48.952;8.970;2023-05-07T01:29:59;11.70;99.90
16066;DHT22;8137;48.952;8.970;2023-05-07T01:32:36;11.70;99.90
16066;DHT22;8137;48.952;8.970;2023-05-07T01:35:05;11.70;99.90
16066;DHT22;8137;48.952;8.970;2023-05-07T01:37:33;11.70;99.90
16066;DHT22;8137;48.952;8.970;2023-05-07T01:39:58;11.60;99.90
16066;DHT22;8137;48.952;8.970;2023-05-07T01:42:24;11.60;99.90
16066;DHT22;8137;48.952;8.970;2023-05-07T01:44:50;11.60;99.90
16066;DHT22;8137;48.952;8.970;2023-05-07T01:47:16;11.60;99.90
16066;DHT22;8137;48.952;8.970;2023-05-07T01:49:42;11.60;99.90
16066;DHT22;8137;48.952;8.970;2023-05-07T01:52:09;11.60;99.90
16066;DHT22;8137;48.952;8.970;2023-05-07T01:54:35;11.50;99.90
16066;DHT22;8137;48.952;8.970;2023-05-07T01:57:01;11.50;99.90
16066;DHT22;8137;48.952;8.970;2023-05-07T01:59:26;11.50;99.90
16066;DHT22;8137;48.952;8.970;2023-05-07T02:01:52;11.50;99.90
16066;DHT22;8137;48.952;8.970;2023-05-07T02:04:18;11.50;99.90
16066;DHT22;8137;48.952;8.970;2023-05-07T02:06:43;11.50;99.90
16066;DHT22;8137;48.952;8.970;2023-05-07T02:09:09;11.50;99.90
16066;DHT22;8137;48.952;8.970;2023-05-07T02:11:34;11.50;99.90
16066;DHT22;8137;48.952;8.970;2023-05-07T02:14:00;11.60;99.90
16066;DHT22;8137;48.952;8.970;2023-05-07T02:16:26;11.50;99.90
16066;DHT22;8137;48.952;8.970;2023-05-07T02:18:51;11.50;99.90
16066;DHT22;8137;48.952;8.970;2023-05-07T02:21:17;11.50;99.90
16066;DHT22;8137;48.952;8.970;2023-05-07T02:23:43;11.40;99.90
16066;DHT22;8137;48.952;8.970;2023-05-07T02:26:08;11.50;99.90
16066;DHT22;8137;48.952;8.970;2023-05-07T02:28:34;11.40;99.90
16066;DHT22;8137;48.952;8.970;2023-05-07T02:31:03;11.40;99.90
16066;DHT22;8137;48.952;8.970;2023-05-07T02:33:29;11.40;99.90
16066;DHT22;8137;48.952;8.970;2023-05-07T02:35:55;11.40;99.90
16066;DHT22;8137;48.952;8.970;2023-05-07T02:38:20;11.40;99.90
16066;DHT22;8137;48.952;8.970;2023-05-07T02:40:46;11.30;99.90
16066;DHT22;8137;48.952;8.970;2023-05-07T02:43:11;11.30;99.90
16066;DHT22;8137;48.952;8.970;2023-05-07T02:45:37;11.30;99.90
16066;DHT22;8137;48.952;8.970;2023-05-07T02:48:03;11.30;99.90
16066;DHT22;8137;48.952;8.970;2023-05-07T02:50:29;11.20;99.90
16066;DHT22;8137;48.952;8.970;2023-05-07T02:52:55;11.20;99.90
16066;DHT22;8137;48.952;8.970;2023-05-07T02:55:21;11.20;99.90
16066;DHT22;8137;48.952;8.970;2023-05-07T02:57:46;11.20;99.90
16066;DHT22;8137;48.952;8.970;2023-05-07T03:00:17;11.10;99.90
16066;DHT22;8137;48.952;8.970;2023-05-07T03:02:43;11.10;99.90
16066;DHT22;8137;48.952;8.970;2023-05-07T03:05:09;11.10;99.90
16066;DHT22;8137;48.952;8.970;2023-05-07T03:07:35;11.00;99.90
16066;DHT22;8137;48.952;8.970;2023-05-07T03:10:01;11.00;99.90
16066;DHT22;8137;48.952;8.970;2023-05-07T03:12:27;11.00;99.90
16066;DHT22;8137;48.952;8.970;2023-05-07T03:14:53;11.00;99.90
16066;DHT22;8137;48.952;8.970;2023-05-07T03:17:18;10.90;99.90
16066;DHT22;8137;48.952;8.970;2023-05-07T03:19:44;10.90;99.90
16066;DHT22;8137;48.952;8.970;2023-05-07T03:22:09;10.90;99.90
16066;DHT22;8137;48.952;8.970;2023-05-07T03:24:35;10.80;99.90
16066;DHT22;8137;48.952;8.970;2023-05-07T03:27:00;10.80;99.90
16066;DHT22;8137;48.952;8.970;2023-05-07T03:29:26;10.70;99.90
16066;DHT22;8137;48.952;8.970;2023-05-07T03:31:52;10.70;99.90
16066;DHT22;8137;48.952;8.970;2023-05-07T03:34:17;10.70;99.90
16066;DHT22;8137;48.952;8.970;2023-05-07T03:36:48;10.70;99.90
16066;DHT22;8137;48.952;8.970;2023-05-07T03:39:13;10.60;99.90
16066;DHT22;8137;48.952;8.970;2023-05-07T03:41:39;10.70;99.90
16066;DHT22;8137;48.952;8.970;2023-05-07T03:44:04;10.70;99.90
16066;DHT22;8137;48.952;8.970;2023-05-07T03:46:30;10.70;99.90
16066;DHT22;8137;48.952;8.970;2023-05-07T03:48:58;10.70;99.90
16066;DHT22;8137;48.952;8.970;2023-05-07T03:51:23;10.70;99.90
16066;DHT22;8137;48.952;8.970;2023-05-07T03:53:49;10.70;99.90
16066;DHT22;8137;48.952;8.970;2023-05-07T03:56:14;10.60;99.90
16066;DHT22;8137;48.952;8.970;2023-05-07T03:58:40;10.60;99.90
16066;DHT22;8137;48.952;8.970;2023-05-07T04:01:06;10.60;99.90
16066;DHT22;8137;48.952;8.970;2023-05-07T04:03:32;10.60;99.90
16066;DHT22;8137;48.952;8.970;2023-05-07T04:05:58;10.60;99.90
16066;DHT22;8137;48.952;8.970;2023-05-07T04:08:23;10.60;99.90
16066;DHT22;8137;48.952;8.970;2023-05-07T04:10:57;10.60;99.90
16066;DHT22;8137;48.952;8.970;2023-05-07T04:13:24;10.50;99.90
16066;DHT22;8137;48.952;8.970;2023-05-07T04:15:50;10.50;99.90
16066;DHT22;8137;48.952;8.970;2023-05-07T04:18:16;10.50;99.90
16066;DHT22;8137;48.952;8.970;2023-05-07T04:20:41;10.60;99.90
16066;DHT22;8137;48.952;8.970;2023-05-07T04:23:07;10.60;99.90
16066;DHT22;8137;48.952;8.970;2023-05-07T04:25:33;10.70;99.90
16066;DHT22;8137;48.952;8.970;2023-05-07T04:27:59;10.80;99.90
16066;DHT22;8137;48.952;8.970;2023-05-07T04:30:24;10.80;99.90
16066;DHT22;8137;48.952;8.970;2023-05-07T04:32:50;10.90;99.90
16066;DHT22;8137;48.952;8.970;2023-05-07T04:35:16;11.00;99.90
16066;DHT22;8137;48.952;8.970;2023-05-07T04:37:42;11.20;99.90
16066;DHT22;8137;48.952;8.970;2023-05-07T04:40:08;11.30;99.90
16066;DHT22;8137;48.952;8.970;2023-05-07T04:42:34;11.50;99.90
16066;DHT22;8137;48.952;8.970;2023-05-07T04:44:59;11.60;99.90
16066;DHT22;8137;48.952;8.970;2023-05-07T04:47:25;11.70;99.90
16066;DHT22;8137;48.952;8.970;2023-05-07T04:49:51;11.80;99.90
16066;DHT22;8137;48.952;8.970;2023-05-07T04:52:16;12.00;99.90
16066;DHT22;8137;48.952;8.970;2023-05-07T04:54:42;12.00;99.90
16066;DHT22;8137;48.952;8.970;2023-05-07T04:57:07;12.20;99.90
16066;DHT22;8137;48.952;8.970;2023-05-07T04:59:33;12.30;99.90
16066;DHT22;8137;48.952;8.970;2023-05-07T05:01:59;12.40;99.90
16066;DHT22;8137;48.952;8.970;2023-05-07T05:04:24;12.60;99.90
16066;DHT22;8137;48.952;8.970;2023-05-07T05:06:51;12.70;99.90
16066;DHT22;8137;48.952;8.970;2023-05-07T05:09:16;12.80;99.90
16066;DHT22;8137;48.952;8.970;2023-05-07T05:11:42;12.90;99.90
16066;DHT22;8137;48.952;8.970;2023-05-07T05:14:07;12.90;99.90
16066;DHT22;8137;48.952;8.970;2023-05-07T05:16:33;13.00;99.90
16066;DHT22;8137;48.952;8.970;2023-05-07T05:18:59;13.00;99.90
16066;DHT22;8137;48.952;8.970;2023-05-07T05:21:25;13.10;99.90
16066;DHT22;8137;48.952;8.970;2023-05-07T05:23:50;13.10;99.90
16066;DHT22;8137;48.952;8.970;2023-05-07T05:26:16;13.30;99.90
16066;DHT22;8137;48.952;8.970;2023-05-07T05:28:41;13.40;99.90
16066;DHT22;8137;48.952;8.970;2023-05-07T05:31:07;13.50;99.90
16066;DHT22;8137;48.952;8.970;2023-05-07T05:33:33;13.60;99.90
16066;DHT22;8137;48.952;8.970;2023-05-07T05:35:58;13.70;99.90
16066;DHT22;8137;48.952;8.970;2023-05-07T05:38:24;13.90;99.90
16066;DHT22;8137;48.952;8.970;2023-05-07T05:40:51;14.00;99.90
16066;DHT22;8137;48.952;8.970;2023-05-07T05:43:16;14.20;99.90
16066;DHT22;8137;48.952;8.970;2023-05-07T05:45:44;14.30;99.90
16066;DHT22;8137;48.952;8.970;2023-05-07T05:48:11;14.50;99.90
16066;DHT22;8137;48.952;8.970;2023-05-07T05:50:37;14.70;99.90
16066;DHT22;8137;48.952;8.970;2023-05-07T05:53:02;14.80;99.90
16066;DHT22;8137;48.952;8.970;2023-05-07T05:55:28;15.10;99.90
16066;DHT22;8137;48.952;8.970;2023-05-07T05:57:54;15.20;99.90
16066;DHT22;8137;48.952;8.970;2023-05-07T06:00:21;15.40;99.90
16066;DHT22;8137;48.952;8.970;2023-05-07T06:02:49;15.50;99.90
16066;DHT22;8137;48.952;8.970;2023-05-07T06:05:15;15.60;99.90
16066;DHT22;8137;48.952;8.970;2023-05-07T06:07:40;15.70;99.90
16066;DHT22;8137;48.952;8.970;2023-05-07T06:10:06;15.70;99.90
16066;DHT22;8137;48.952;8.970;2023-05-07T06:12:32;15.80;99.90
16066;DHT22;8137;48.952;8.970;2023-05-07T06:14:58;15.90;99.90
16066;DHT22;8137;48.952;8.970;2023-05-07T06:17:23;16.20;99.90
16066;DHT22;8137;48.952;8.970;2023-05-07T06:19:49;16.60;99.90
16066;DHT22;8137;48.952;8.970;2023-05-07T06:22:15;16.90;99.90
16066;DHT22;8137;48.952;8.970;2023-05-07T06:24:40;16.90;99.90
16066;DHT22;8137;48.952;8.970;2023-05-07T06:27:06;17.10;99.90
16066;DHT22;8137;48.952;8.970;2023-05-07T06:29:31;17.10;99.90
16066;DHT22;8137;48.952;8.970;2023-05-07T06:32:07;17.20;99.90
16066;DHT22;8137;48.952;8.970;2023-05-07T06:34:33;17.30;99.90
16066;DHT22;8137;48.952;8.970;2023-05-07T06:36:58;17.60;99.90
16066;DHT22;8137;48.952;8.970;2023-05-07T06:39:24;17.90;99.90
16066;DHT22;8137;48.952;8.970;2023-05-07T06:41:49;18.10;99.90
16066;DHT22;8137;48.952;8.970;2023-05-07T06:44:15;18.20;99.90
16066;DHT22;8137;48.952;8.970;2023-05-07T06:46:43;18.30;99.90
16066;DHT22;8137;48.952;8.970;2023-05-07T06:49:09;18.30;99.90
16066;DHT22;8137;48.952;8.970;2023-05-07T06:51:34;18.30;99.90
16066;DHT22;8137;48.952;8.970;2023-05-07T06:54:00;18.30;99.90
16066;DHT22;8137;48.952;8.970;2023-05-07T06:56:25;18.40;99.90
16066;DHT22;8137;48.952;8.970;2023-05-07T06:58:51;18.60;99.90
16066;DHT22;8137;48.952;8.970;2023-05-07T07:01:16;18.80;99.90
16066;DHT22;8137;48.952;8.970;2023-05-07T07:03:42;18.90;99.90
16066;DHT22;8137;48.952;8.970;2023-05-07T07:06:08;18.80;99.90
16066;DHT22;8137;48.952;8.970;2023-05-07T07:08:33;18.80;99.90
16066;DHT22;8137;48.952;8.970;2023-05-07T07:11:00;19.00;99.90
16066;DHT22;8137;48.952;8.970;2023-05-07T07:13:25;19.00;99.90
16066;DHT22;8137;48.952;8.970;2023-05-07T07:15:51;19.00;99.90
16066;DHT22;8137;48.952;8.970;2023-05-07T07:18:17;19.10;99.90
16066;DHT22;8137;48.952;8.970;2023-05-07T07:20:43;19.20;99.90
16066;DHT22;8137;48.952;8.970;2023-05-07T07:23:09;19.50;99.90
16066;DHT22;8137;48.952;8.970;2023-05-07T07:25:35;19.70;99.90
16066;DHT22;8137;48.952;8.970;2023-05-07T07:28:01;19.80;99.90
16066;DHT22;8137;48.952;8.970;2023-05-07T07:30:27;19.80;99.90
16066;DHT22;8137;48.952;8.970;2023-05-07T07:32:53;19.80;99.90
16066;DHT22;8137;48.952;8.970;2023-05-07T07:35:18;20.00;99.90
16066;DHT22;8137;48.952;8.970;2023-05-07T07:37:44;19.90;99.90
16066;DHT22;8137;48.952;8.970;2023-05-07T07:40:11;19.80;99.90
16066;DHT22;8137;48.952;8.970;2023-05-07T07:42:37;19.60;99.90
16066;DHT22;8137;48.952;8.970;2023-05-07T07:45:03;19.50;99.90
16066;DHT22;8137;48.952;8.970;2023-05-07T07:47:28;19.50;99.90
16066;DHT22;8137;48.952;8.970;2023-05-07T07:49:54;19.30;99.90
16066;DHT22;8137;48.952;8.970;2023-05-07T07:52:20;19.30;99.90
16066;DHT22;8137;48.952;8.970;2023-05-07T07:54:45;19.40;99.90
16066;DHT22;8137;48.952;8.970;2023-05-07T07:57:11;19.60;99.90
16066;DHT22;8137;48.952;8.970;2023-05-07T07:59:36;19.70;99.90
16066;DHT22;8137;48.952;8.970;2023-05-07T08:02:02;19.90;99.90
16066;DHT22;8137;48.952;8.970;2023-05-07T08:04:28;20.10;99.90
16066;DHT22;8137;48.952;8.970;2023-05-07T08:06:53;20.20;99.90
16066;DHT22;8137;48.952;8.970;2023-05-07T08:09:19;20.30;99.90
16066;DHT22;8137;48.952;8.970;2023-05-07T08:11:45;20.50;99.90
16066;DHT22;8137;48.952;8.970;2023-05-07T08:14:11;20.60;99.90
16066;DHT22;8137;48.952;8.970;2023-05-07T08:16:37;20.60;99.90
16066;DHT22;8137;48.952;8.970;2023-05-07T08:19:02;20.50;99.90
16066;DHT22;8137;48.952;8.970;2023-05-07T08:21:28;20.60;99.90
16066;DHT22;8137;48.952;8.970;2023-05-07T08:23:54;20.70;99.90
16066;DHT22;8137;48.952;8.970;2023-05-07T08:26:19;20.60;99.90
16066;DHT22;8137;48.952;8.970;2023-05-07T08:28:45;20.50;99.90
16066;DHT22;8137;48.952;8.970;2023-05-07T08:31:11;20.50;99.90
16066;DHT22;8137;48.952;8.970;2023-05-07T08:33:36;20.50;99.90
16066;DHT22;8137;48.952;8.970;2023-05-07T08:36:04;20.70;99.90
16066;DHT22;8137;48.952;8.970;2023-05-07T08:38:29;20.90;99.90
16066;DHT22;8137;48.952;8.970;2023-05-07T08:40:55;21.10;99.90
16066;DHT22;8137;48.952;8.970;2023-05-07T08:43:21;21.40;99.90
16066;DHT22;8137;48.952;8.970;2023-05-07T08:45:49;21.50;99.90
16066;DHT22;8137;48.952;8.970;2023-05-07T08:48:21;21.80;99.90
16066;DHT22;8137;48.952;8.970;2023-05-07T08:50:47;21.80;99.90
16066;DHT22;8137;48.952;8.970;2023-05-07T08:53:13;22.00;99.90
16066;DHT22;8137;48.952;8.970;2023-05-07T08:55:40;21.80;99.90
16066;DHT22;8137;48.952;8.970;2023-05-07T08:58:05;21.50;99.90
16066;DHT22;8137;48.952;8.970;2023-05-07T09:00:32;21.40;99.90
16066;DHT22;8137;48.952;8.970;2023-05-07T09:02:58;21.20;99.90
16066;DHT22;8137;48.952;8.970;2023-05-07T09:05:23;21.30;99.90
16066;DHT22;8137;48.952;8.970;2023-05-07T09:07:49;21.60;99.90
16066;DHT22;8137;48.952;8.970;2023-05-07T09:10:15;21.80;99.90
16066;DHT22;8137;48.952;8.970;2023-05-07T09:12:41;22.00;99.90
16066;DHT22;8137;48.952;8.970;2023-05-07T09:15:07;22.20;99.90
16066;DHT22;8137;48.952;8.970;2023-05-07T09:17:33;22.40;99.90
16066;DHT22;8137;48.952;8.970;2023-05-07T09:20:03;22.50;99.90
16066;DHT22;8137;48.952;8.970;2023-05-07T09:22:40;22.80;99.90
16066;DHT22;8137;48.952;8.970;2023-05-07T09:25:06;22.80;99.90
16066;DHT22;8137;48.952;8.970;2023-05-07T09:27:33;23.00;99.90
16066;DHT22;8137;48.952;8.970;2023-05-07T09:29:58;23.20;99.90
16066;DHT22;8137;48.952;8.970;2023-05-07T09:32:24;23.30;99.90
16066;DHT22;8137;48.952;8.970;2023-05-07T09:34:50;23.50;99.90
16066;DHT22;8137;48.952;8.970;2023-05-07T09:37:16;23.40;99.90
16066;DHT22;8137;48.952;8.970;2023-05-07T09:39:43;23.50;99.90
16066;DHT22;8137;48.952;8.970;2023-05-07T09:42:09;23.50;99.90
16066;DHT22;8137;48.952;8.970;2023-05-07T09:44:37;23.60;99.90
16066;DHT22;8137;48.952;8.970;2023-05-07T09:47:05;23.90;99.90
16066;DHT22;8137;48.952;8.970;2023-05-07T09:49:35;24.10;99.90
16066;DHT22;8137;48.952;8.970;2023-05-07T09:52:02;24.30;99.90
16066;DHT22;8137;48.952;8.970;2023-05-07T09:54:29;24.20;99.90
16066;DHT22;8137;48.952;8.970;2023-05-07T09:56:55;24.30;99.90
16066;DHT22;8137;48.952;8.970;2023-05-07T09:59:21;24.40;99.90
16066;DHT22;8137;48.952;8.970;2023-05-07T10:01:48;24.40;99.90
16066;DHT22;8137;48.952;8.970;2023-05-07T10:04:14;24.60;99.90
16066;DHT22;8137;48.952;8.970;2023-05-07T10:06:40;24.50;99.90
16066;DHT22;8137;48.952;8.970;2023-05-07T10:09:07;24.50;99.90
16066;DHT22;8137;48.952;8.970;2023-05-07T10:11:36;24.60;99.90
16066;DHT22;8137;48.952;8.970;2023-05-07T10:14:02;24.90;99.90
16066;DHT22;8137;48.952;8.970;2023-05-07T10:16:34;24.90;99.90
16066;DHT22;8137;48.952;8.970;2023-05-07T10:19:03;25.20;99.90
16066;DHT22;8137;48.952;8.970;2023-05-07T10:21:29;25.10;99.90
16066;DHT22;8137;48.952;8.970;2023-05-07T10:24:00;25.00;99.90
16066;DHT22;8137;48.952;8.970;2023-05-07T10:26:30;24.90;99.90
16066;DHT22;8137;48.952;8.970;2023-05-07T10:29:01;24.60;99.90
16066;DHT22;8137;48.952;8.970;2023-05-07T10:32:10;24.30;99.90
16066;DHT22;8137;48.952;8.970;2023-05-07T10:34:39;24.30;99.90
16066;DHT22;8137;48.952;8.970;2023-05-07T10:37:06;24.20;99.90
16066;DHT22;8137;48.952;8.970;2023-05-07T10:39:32;24.10;99.90
16066;DHT22;8137;48.952;8.970;2023-05-07T10:42:10;24.20;99.90
16066;DHT22;8137;48.952;8.970;2023-05-07T10:44:36;24.40;99.90
16066;DHT22;8137;48.952;8.970;2023-05-07T10:52:21;25.30;99.90
16066;DHT22;8137;48.952;8.970;2023-05-07T10:57:40;25.60;99.90
16066;DHT22;8137;48.952;8.970;2023-05-07T11:05:25;26.50;99.90
16066;DHT22;8137;48.952;8.970;2023-05-07T11:07:54;26.70;99.90
16066;DHT22;8137;48.952;8.970;2023-05-07T11:10:20;26.80;99.90
16066;DHT22;8137;48.952;8.970;2023-05-07T11:12:47;26.80;99.90
16066;DHT22;8137;48.952;8.970;2023-05-07T11:15:13;26.80;98.80
16066;DHT22;8137;48.952;8.970;2023-05-07T11:17:58;26.80;99.90
16066;DHT22;8137;48.952;8.970;2023-05-07T11:20:58;26.90;99.60
16066;DHT22;8137;48.952;8.970;2023-05-07T11:28:37;27.00;95.80
16066;DHT22;8137;48.952;8.970;2023-05-07T11:31:03;27.10;95.50
16066;DHT22;8137;48.952;8.970;2023-05-07T11:33:30;27.30;92.10
16066;DHT22;8137;48.952;8.970;2023-05-07T11:35:56;27.60;90.70
16066;DHT22;8137;48.952;8.970;2023-05-07T11:38:22;27.70;92.40
16066;DHT22;8137;48.952;8.970;2023-05-07T11:40:56;27.50;91.80
16066;DHT22;8137;48.952;8.970;2023-05-07T11:43:22;27.40;91.60
16066;DHT22;8137;48.952;8.970;2023-05-07T11:45:48;27.40;90.70
16066;DHT22;8137;48.952;8.970;2023-05-07T11:48:15;27.50;92.30
16066;DHT22;8137;48.952;8.970;2023-05-07T11:50:54;27.90;93.30
16066;DHT22;8137;48.952;8.970;2023-05-07T11:53:25;27.80;82.10
16066;DHT22;8137;48.952;8.970;2023-05-07T11:55:57;27.70;82.90
16066;DHT22;8137;48.952;8.970;2023-05-07T11:58:24;27.70;86.70
16066;DHT22;8137;48.952;8.970;2023-05-07T12:00:51;27.70;86.20
16066;DHT22;8137;48.952;8.970;2023-05-07T12:03:17;27.80;86.40
16066;DHT22;8137;48.952;8.970;2023-05-07T12:05:46;28.10;84.30
16066;DHT22;8137;48.952;8.970;2023-05-07T12:08:19;28.20;82.30
16066;DHT22;8137;48.952;8.970;2023-05-07T12:10:48;28.20;89.30
16066;DHT22;8137;48.952;8.970;2023-05-07T12:13:26;28.40;90.00
16066;DHT22;8137;48.952;8.970;2023-05-07T12:15:52;28.90;84.50
16066;DHT22;8137;48.952;8.970;2023-05-07T12:18:18;28.90;72.80
16066;DHT22;8137;48.952;8.970;2023-05-07T12:20:45;29.10;69.30
16066;DHT22;8137;48.952;8.970;2023-05-07T12:23:11;29.50;71.00
16066;DHT22;8137;48.952;8.970;2023-05-07T12:25:38;29.40;59.00
16066;DHT22;8137;48.952;8.970;2023-05-07T12:28:05;29.50;59.10
16066;DHT22;8137;48.952;8.970;2023-05-07T12:30:38;29.30;55.80
16066;DHT22;8137;48.952;8.970;2023-05-07T12:33:04;28.90;55.10
16066;DHT22;8137;48.952;8.970;2023-05-07T12:35:30;28.60;53.30
16066;DHT22;8137;48.952;8.970;2023-05-07T12:37:57;28.50;52.00
16066;DHT22;8137;48.952;8.970;2023-05-07T12:40:38;28.30;53.30
16066;DHT22;8137;48.952;8.970;2023-05-07T12:43:04;28.20;54.30
16066;DHT22;8137;48.952;8.970;2023-05-07T12:45:30;28.10;58.40
16066;DHT22;8137;48.952;8.970;2023-05-07T12:47:56;27.90;58.40
16066;DHT22;8137;48.952;8.970;2023-05-07T12:50:22;27.60;59.00
16066;DHT22;8137;48.952;8.970;2023-05-07T12:52:48;26.90;53.60
16066;DHT22;8137;48.952;8.970;2023-05-07T12:55:15;26.70;56.50
16066;DHT22;8137;48.952;8.970;2023-05-07T12:57:50;26.50;60.10
16066;DHT22;8137;48.952;8.970;2023-05-07T13:00:16;26.20;65.10
16066;DHT22;8137;48.952;8.970;2023-05-07T13:02:43;25.90;65.30
16066;DHT22;8137;48.952;8.970;2023-05-07T13:05:12;25.70;66.50
16066;DHT22;8137;48.952;8.970;2023-05-07T13:07:37;25.50;68.70
16066;DHT22;8137;48.952;8.970;2023-05-07T13:10:04;25.10;81.80
16066;DHT22;8137;48.952;8.970;2023-05-07T13:12:30;24.70;93.10
16066;DHT22;8137;48.952;8.970;2023-05-07T13:14:55;24.30;97.60
16066;DHT22;8137;48.952;8.970;2023-05-07T13:17:21;24.10;99.90
16066;DHT22;8137;48.952;8.970;2023-05-07T13:19:47;23.80;99.90
16066;DHT22;8137;48.952;8.970;2023-05-07T13:22:12;23.50;99.90
16066;DHT22;8137;48.952;8.970;2023-05-07T13:24:38;23.30;99.90
16066;DHT22;8137;48.952;8.970;2023-05-07T13:27:07;23.10;99.90
16066;DHT22;8137;48.952;8.970;2023-05-07T13:29:32;22.90;99.90
16066;DHT22;8137;48.952;8.970;2023-05-07T13:32:00;22.70;99.90
16066;DHT22;8137;48.952;8.970;2023-05-07T13:34:26;22.50;99.90
16066;DHT22;8137;48.952;8.970;2023-05-07T13:36:52;22.20;99.90
16066;DHT22;8137;48.952;8.970;2023-05-07T13:39:17;22.10;99.90
16066;DHT22;8137;48.952;8.970;2023-05-07T13:41:43;21.80;99.90
16066;DHT22;8137;48.952;8.970;2023-05-07T13:44:08;21.60;99.90
16066;DHT22;8137;48.952;8.970;2023-05-07T13:46:34;21.40;99.90
16066;DHT22;8137;48.952;8.970;2023-05-07T13:48:59;21.10;99.90
16066;DHT22;8137;48.952;8.970;2023-05-07T13:51:25;20.80;99.90
16066;DHT22;8137;48.952;8.970;2023-05-07T13:53:51;20.50;99.90
16066;DHT22;8137;48.952;8.970;2023-05-07T13:56:17;20.20;99.90
16066;DHT22;8137;48.952;8.970;2023-05-07T13:58:43;20.00;99.90
16066;DHT22;8137;48.952;8.970;2023-05-07T14:01:09;19.70;99.90
16066;DHT22;8137;48.952;8.970;2023-05-07T14:03:34;19.50;99.90
16066;DHT22;8137;48.952;8.970;2023-05-07T14:06:03;19.40;99.90
16066;DHT22;8137;48.952;8.970;2023-05-07T14:08:28;18.90;99.90
16066;DHT22;8137;48.952;8.970;2023-05-07T14:10:54;18.60;99.90
16066;DHT22;8137;48.952;8.970;2023-05-07T14:13:20;18.20;99.90
16066;DHT22;8137;48.952;8.970;2023-05-07T14:15:45;18.00;99.90
16066;DHT22;8137;48.952;8.970;2023-05-07T14:18:15;17.90;99.90
16066;DHT22;8137;48.952;8.970;2023-05-07T14:20:41;17.80;99.90
16066;DHT22;8137;48.952;8.970;2023-05-07T14:23:08;17.70;99.90
16066;DHT22;8137;48.952;8.970;2023-05-07T14:25:34;17.60;99.90
16066;DHT22;8137;48.952;8.970;2023-05-07T14:27:59;17.40;99.90
16066;DHT22;8137;48.952;8.970;2023-05-07T14:30:25;17.20;99.90
16066;DHT22;8137;48.952;8.970;2023-05-07T14:32:51;17.00;99.90
16066;DHT22;8137;48.952;8.970;2023-05-07T14:35:16;17.10;99.90
16066;DHT22;8137;48.952;8.970;2023-05-07T14:37:43;17.10;99.90
16066;DHT22;8137;48.952;8.970;2023-05-07T14:40:09;17.10;99.90
16066;DHT22;8137;48.952;8.970;2023-05-07T14:42:34;17.20;99.90
16066;DHT22;8137;48.952;8.970;2023-05-07T14:45:00;17.10;99.90
16066;DHT22;8137;48.952;8.970;2023-05-07T14:47:26;17.10;99.90
16066;DHT22;8137;48.952;8.970;2023-05-07T14:49:51;17.10;99.90
16066;DHT22;8137;48.952;8.970;2023-05-07T14:52:18;17.10;99.90
16066;DHT22;8137;48.952;8.970;2023-05-07T14:54:44;17.20;99.90
16066;DHT22;8137;48.952;8.970;2023-05-07T14:57:10;17.30;99.90
16066;DHT22;8137;48.952;8.970;2023-05-07T14:59:38;17.30;99.90
16066;DHT22;8137;48.952;8.970;2023-05-07T15:02:04;17.40;99.90
16066;DHT22;8137;48.952;8.970;2023-05-07T15:04:30;17.40;99.90
16066;DHT22;8137;48.952;8.970;2023-05-07T15:06:56;17.40;99.90
16066;DHT22;8137;48.952;8.970;2023-05-07T15:09:22;17.30;99.90
16066;DHT22;8137;48.952;8.970;2023-05-07T15:11:47;17.30;99.90
16066;DHT22;8137;48.952;8.970;2023-05-07T15:14:13;17.30;99.90
16066;DHT22;8137;48.952;8.970;2023-05-07T15:16:38;17.40;99.90
16066;DHT22;8137;48.952;8.970;2023-05-07T15:19:04;17.50;99.90
16066;DHT22;8137;48.952;8.970;2023-05-07T15:21:30;17.50;99.90
16066;DHT22;8137;48.952;8.970;2023-05-07T15:23:58;17.60;99.90
16066;DHT22;8137;48.952;8.970;2023-05-07T15:26:23;17.80;99.90
16066;DHT22;8137;48.952;8.970;2023-05-07T15:28:49;17.80;99.90
16066;DHT22;8137;48.952;8.970;2023-05-07T15:31:15;17.90;99.90
16066;DHT22;8137;48.952;8.970;2023-05-07T15:33:41;17.90;99.90
16066;DHT22;8137;48.952;8.970;2023-05-07T15:36:07;17.90;99.90
16066;DHT22;8137;48.952;8.970;2023-05-07T15:38:33;17.90;99.90
16066;DHT22;8137;48.952;8.970;2023-05-07T15:40:58;17.80;99.90
16066;DHT22;8137;48.952;8.970;2023-05-07T15:43:24;17.80;99.90
16066;DHT22;8137;48.952;8.970;2023-05-07T15:45:50;17.70;99.90
16066;DHT22;8137;48.952;8.970;2023-05-07T15:48:16;17.70;99.90
16066;DHT22;8137;48.952;8.970;2023-05-07T15:50:41;17.70;99.90
16066;DHT22;8137;48.952;8.970;2023-05-07T15:53:07;17.80;99.90
16066;DHT22;8137;48.952;8.970;2023-05-07T15:55:33;17.80;99.90
16066;DHT22;8137;48.952;8.970;2023-05-07T15:57:59;17.80;99.90
16066;DHT22;8137;48.952;8.970;2023-05-07T16:00:26;17.80;99.90